Latest Weather Observations for Redcliffe

IDQ60801

Issued at 8:02 am EST Saturday 23 May 2015 (issued every 30 minutes, with the page automatically refreshed every 10 minutes)

About weather observations | Map of weather stations | Latest weather observations for QLD | Other Formats
Station Details ID: 040958 Name: REDCLIFFE Lat: -27.22 Lon: 153.09 Height: 12.6 m
Data from the previous 72 hours. | See also: Recent months at Redcliffe
Date/Time
EST
Temp
°C
App
Temp
°C
Dew
Point
Rel
Hum
%
Delta-T
°C
Wind Press
QNH
hPa
Press
MSL
hPa
Rain
since 9 am
mm
Dir
 
Spd
km/h
Gust
km/h
Spd
kts
Gust
kts
23/08:00am 17.0 13.2 8.9 59 4.2 SSW 19 28 10 15 1022.2 1022.2 0.2
23/07:30am 15.9 12.1 8.9 63 3.6 SW 19 30 10 16 1021.9 1021.9 0.2
23/07:00am 15.4 12.2 8.4 63 3.5 SW 15 22 8 12 1021.5 1021.5 0.2
23/06:30am 14.8 10.9 8.5 66 3.2 SSW 19 32 10 17 1021.1 1021.1 0.2
23/06:00am 14.4 10.2 8.4 67 3.0 SW 20 32 11 17 1020.8 1020.8 0.2
23/05:30am 14.5 10.6 8.5 67 3.0 SW 19 30 10 16 1020.4 1020.4 0.2
23/05:00am 14.6 11.0 8.3 66 3.2 SW 17 28 9 15 1020.0 1020.0 0.2
23/04:30am 14.9 11.3 8.4 65 3.3 SW 17 32 9 17 1019.9 1019.9 0.2
23/04:00am 15.3 11.3 8.3 63 3.5 SW 19 30 10 16 1019.6 1019.6 0.2
23/03:30am 15.2 11.0 8.4 64 3.4 SW 20 30 11 16 1019.5 1019.5 0.2
23/03:00am 14.9 11.0 8.8 67 3.1 SW 19 28 10 15 1019.5 1019.5 0.2
23/02:30am 14.9 11.7 8.6 66 3.2 SW 15 22 8 12 1019.4 1019.4 0.2
23/02:00am 15.0 11.5 8.7 66 3.2 SW 17 22 9 12 1019.4 1019.4 0.2
23/01:30am 15.3 11.9 9.0 66 3.2 WSW 17 24 9 13 1019.6 1019.6 0.2
23/01:00am 14.9 11.5 9.1 68 3.0 WSW 17 24 9 13 1019.7 1019.7 0.2
23/12:30am 14.0 10.5 8.6 70 2.7 WSW 17 20 9 11 1019.6 1019.6 0.2
23/12:00am 13.7 10.2 8.7 72 2.5 WSW 17 22 9 12 1019.4 1019.4 0.2
 
Date/Time
EST
Temp
°C
App
Temp
°C
Dew
Point
Rel
Hum
%
Delta-T
°C
Wind Press
QNH
hPa
Press
MSL
hPa
Rain
since 9 am
mm
Dir
 
Spd
km/h
Gust
km/h
Spd
kts
Gust
kts
22/11:30pm 13.0 9.8 8.3 73 2.3 W 15 19 8 10 1019.5 1019.5 0.2
22/11:00pm 14.1 11.2 8.1 67 3.0 W 13 19 7 10 1019.5 1019.5 0.2
22/10:30pm 14.5 11.2 8.0 65 3.2 WSW 15 22 8 12 1019.4 1019.4 0.2
22/10:00pm 14.8 10.8 8.1 64 3.3 WSW 19 26 10 14 1019.5 1019.5 0.2
22/09:30pm 15.3 11.6 7.8 61 3.7 W 17 26 9 14 1019.4 1019.4 0.2
22/09:00pm 15.5 11.4 7.8 60 3.8 W 19 28 10 15 1018.9 1018.9 0.2
22/08:30pm 15.6 11.4 7.6 59 4.0 WSW 19 30 10 16 1018.7 1018.7 0.2
22/08:00pm 15.5 11.3 7.5 59 4.0 WSW 19 28 10 15 1018.6 1018.6 0.2
22/07:30pm 15.8 12.7 7.3 57 4.2 W 13 20 7 11 1018.4 1018.4 0.2
22/07:00pm 15.9 12.0 6.9 55 4.4 WSW 17 26 9 14 1017.8 1017.7 0.2
22/06:30pm 16.1 12.2 7.1 55 4.5 WSW 17 28 9 15 1017.3 1017.2 0.2
22/06:00pm 16.1 12.1 6.8 54 4.6 W 17 33 9 18 1016.8 1016.7 0.2
22/05:30pm 16.3 11.4 6.7 53 4.7 W 22 33 12 18 1016.4 1016.3 0.2
22/05:00pm 16.6 12.0 6.4 51 5.0 WSW 20 30 11 16 1016.5 1016.4 0.2
22/04:30pm 17.4 12.8 6.6 49 5.3 WSW 20 32 11 17 1016.4 1016.3 0.2
22/04:00pm 18.0 12.2 6.2 46 5.8 W 26 41 14 22 1015.8 1015.7 0.2
22/03:30pm 18.2 11.7 6.7 47 5.7 W 30 50 16 27 1015.6 1015.5 0.2
22/03:27pm 18.2 12.0 6.1 45 6.0 W 28 50 15 27 1015.5 1015.4 0.2
22/03:00pm 18.5 12.7 6.4 45 6.0 W 26 39 14 21 1015.3 1015.2 0.2
22/02:30pm 18.2 13.9 5.4 43 6.2 W 17 32 9 17 1015.2 1015.1 0.2
22/02:03pm 18.2 11.8 5.4 43 6.2 WSW 28 52 15 28 1015.6 1015.5 0.2
22/02:00pm 18.2 12.1 4.7 41 6.5 WSW 26 37 14 20 1015.6 1015.5 0.2
22/01:30pm 18.6 12.1 6.4 45 6.1 W 30 48 16 26 1015.7 1015.6 0.2
22/01:00pm 18.2 11.4 6.7 47 5.7 WSW 32 46 17 25 1015.8 1015.7 0.2
22/12:30pm 18.8 12.5 7.6 48 5.7 W 30 46 16 25 1016.1 1016.0 0.2
22/12:28pm 18.5 12.4 6.7 46 5.9 WSW 28 46 15 25 1016.1 1016.0 0.2
22/12:00pm 18.3 12.6 6.8 47 5.7 W 26 41 14 22 1016.5 1016.4 0.2
22/11:30am 18.2 13.7 7.0 48 5.6 W 20 33 11 18 1016.7 1016.6 0.2
22/11:00am 17.5 13.3 7.3 51 5.1 W 19 30 10 16 1017.0 1016.9 0.0
22/10:30am 16.9 11.2 6.7 51 5.0 WSW 26 37 14 20 1017.5 1017.4 0.0
22/10:00am 16.9 12.2 7.8 55 4.6 WSW 22 32 12 17 1017.8 1017.7 0.0
22/09:30am 17.1 11.2 7.7 54 4.7 SW 28 37 15 20 1017.7 1017.6 0.0
22/09:00am 17.4 12.6 7.2 51 5.1 W 22 33 12 18 1017.5 1017.4 -
22/08:30am 17.2 14.2 7.5 53 4.9 W 13 19 7 10 1017.3 1017.2 -
22/08:00am 16.8 13.9 9.7 63 3.7 W 15 20 8 11 1017.2 1017.1 -
22/07:30am 16.1 13.9 9.5 65 3.4 W 11 15 6 8 1016.8 1016.7 -
22/07:00am 15.1 12.7 9.9 71 2.7 W 13 15 7 8 1016.7 1016.6 -
22/06:30am 15.7 12.6 10.2 70 2.9 W 17 26 9 14 1016.6 1016.5 -
22/06:00am 16.5 13.7 11.4 72 2.8 W 17 28 9 15 1016.3 1016.2 -
22/05:30am 16.8 13.3 12.1 74 2.6 W 22 32 12 17 1015.9 1015.8 -
22/05:00am 16.9 14.4 12.4 75 2.5 W 17 24 9 13 1015.6 1015.5 -
22/04:30am 17.0 15.2 13.3 79 2.1 W 15 22 8 12 1015.6 1015.5 -
22/04:00am 16.6 15.5 14.4 87 1.3 W 13 15 7 8 1015.6 1015.5 -
22/03:30am 16.8 16.3 14.8 88 1.2 WNW 11 15 6 8 1015.7 1015.6 -
22/03:00am 16.9 16.8 14.9 88 1.2 WNW 9 13 5 7 1015.8 1015.7 2.0
22/02:30am 17.0 16.9 15.0 88 1.2 NW 9 13 5 7 1016.0 1015.9 -
22/02:00am 16.7 16.5 14.7 88 1.1 NW 9 13 5 7 1016.2 1016.1 -
22/01:30am 16.7 16.5 14.7 88 1.2 NW 9 11 5 6 1016.4 1016.3 -
22/01:00am 16.8 16.6 14.6 87 1.3 NW 9 13 5 7 1016.8 1016.7 -
22/12:30am 17.0 17.2 14.6 86 1.4 WNW 7 11 4 6 1017.0 1016.9 -
22/12:00am 17.3 17.1 14.6 84 1.6 WSW 9 11 5 6 1017.2 1017.1 -
 
Date/Time
EST
Temp
°C
App
Temp
°C
Dew
Point
Rel
Hum
%
Delta-T
°C
Wind Press
QNH
hPa
Press
MSL
hPa
Rain
since 9 am
mm
Dir
 
Spd
km/h
Gust
km/h
Spd
kts
Gust
kts
21/11:30pm 17.4 17.0 14.1 81 1.9 WSW 9 15 5 8 1017.5 1017.4 -
21/11:00pm 18.3 18.1 13.6 74 2.7 NW 7 9 4 5 1017.0 1016.9 -
21/10:30pm 19.3 18.1 12.8 66 3.7 S 11 15 6 8 1017.6 1017.5 -
21/10:00pm 19.5 18.5 13.4 68 3.5 S 11 15 6 8 1017.7 1017.6 -
21/09:30pm 19.8 20.9 13.5 67 3.6 CALM 0 6 0 3 1018.0 1018.0 -
21/09:00pm 20.0 20.2 13.2 65 3.9 WSW 4 7 2 4 1017.6 1017.5 0.0
21/08:30pm 20.0 19.8 13.7 67 3.6 S 7 9 4 5 1017.4 1017.3 -
21/08:00pm 20.1 20.0 13.3 65 3.9 SW 6 9 3 5 1017.5 1017.4 -
21/07:30pm 20.5 21.1 13.2 63 4.2 SSW 2 6 1 3 1017.5 1017.4 -
21/07:00pm 20.8 20.0 13.0 61 4.4 WSW 9 11 5 6 1017.5 1017.4 -
21/06:30pm 21.0 20.4 13.4 62 4.4 SW 9 15 5 8 1017.4 1017.3 -
21/06:00pm 21.4 19.2 13.3 60 4.6 WSW 17 28 9 15 1017.2 1017.1 -
21/05:30pm 21.5 19.1 13.7 61 4.5 WSW 19 30 10 16 1016.9 1016.8 -
21/05:00pm 21.7 19.7 13.9 61 4.5 WSW 17 26 9 14 1016.6 1016.5 -
21/04:30pm 22.1 20.7 14.5 62 4.5 WSW 15 24 8 13 1016.3 1016.2 -
21/04:00pm 22.1 21.2 15.9 68 3.7 SW 15 22 8 12 1016.2 1016.1 -
21/03:30pm 22.6 21.9 16.4 68 3.8 SW 15 22 8 12 1015.9 1015.8 -
21/03:00pm 23.3 22.3 16.6 66 4.1 SSW 17 24 9 13 1015.8 1015.7 -
21/02:30pm 25.2 24.7 17.9 64 4.6 SSE 17 19 9 10 1015.3 1015.2 -
21/02:00pm 25.1 - 17.0 60 5.0 - - - - - 1015.2 1015.1 -
21/01:30pm 25.1 24.1 16.5 59 5.3 ENE 17 24 9 13 1015.5 1015.4 -
21/01:00pm 25.4 26.0 18.6 66 4.3 ENE 13 15 7 8 1015.9 1015.8 -
21/12:30pm - - - - - NE 15 15 8 8 1016.5 1016.4 0.0
21/12:00pm - - - - - NE 15 17 8 9 1016.9 1016.8 0.0
21/11:30am 24.2 24.3 17.4 65 4.2 NNE 13 17 7 9 1017.7 1017.6 0.0
21/11:00am 23.5 24.9 17.7 70 3.6 NNW 7 11 4 6 1018.0 1018.0 0.0
21/10:30am 22.6 24.0 18.6 78 2.5 NNW 9 13 5 7 1018.7 1018.7 0.0
21/10:00am 21.1 23.3 17.5 80 2.2 NE 2 7 1 4 1018.9 1018.9 0.0
21/09:30am 19.9 21.1 17.3 85 1.6 NNE 7 9 4 5 1019.1 1019.1 0.0
21/09:00am 19.3 20.7 17.8 91 0.9 ENE 7 9 4 5 1019.0 1019.0 0.0
21/08:30am 18.7 20.1 17.4 92 0.8 SW 6 7 3 4 1019.1 1019.1 0.0
21/08:00am 18.3 19.6 17.0 92 0.8 SW 6 7 3 4 1018.9 1018.9 0.0
21/07:30am 18.1 18.7 16.8 92 0.8 SW 9 13 5 7 1019.0 1019.0 0.0
21/07:00am 17.8 18.3 16.5 92 0.8 WSW 9 11 5 6 1018.5 1018.5 0.0
21/06:30am 17.3 18.9 16.0 92 0.8 W 2 9 1 5 1018.2 1018.2 0.0
21/06:00am 18.1 19.1 16.9 93 0.7 WNW 7 9 4 5 1018.0 1018.0 0.0
21/05:30am 17.2 19.2 15.9 92 0.8 CALM 0 0 0 0 1017.3 1017.2 0.0
21/05:00am 17.5 19.6 16.2 92 0.8 CALM 0 0 0 0 1017.5 1017.4 0.0
21/04:30am 17.8 20.0 16.5 92 0.8 CALM 0 0 0 0 1017.6 1017.5 0.0
21/04:00am 17.9 18.8 16.6 92 0.8 WNW 7 9 4 5 1017.7 1017.6 0.0
21/03:30am 18.2 20.6 16.9 92 0.8 CALM 0 0 0 0 1017.5 1017.4 0.0
21/03:00am 18.2 19.8 16.9 92 0.8 WSW 4 9 2 5 1017.6 1017.5 0.0
21/02:30am 18.5 19.6 17.0 91 0.9 W 7 9 4 5 1017.7 1017.6 0.0
21/02:00am 18.7 20.0 17.2 91 0.9 NW 6 7 3 4 1017.9 1017.9 0.0
21/01:30am 19.2 21.1 17.7 91 0.9 N 4 7 2 4 1018.1 1018.1 0.0
21/01:00am 19.3 20.7 17.8 91 0.9 NNW 7 11 4 6 1018.3 1018.3 0.0
21/12:30am 19.4 20.5 17.9 91 0.9 N 9 11 5 6 1018.5 1018.5 0.0
21/12:00am 19.5 20.3 18.2 92 0.8 N 11 13 6 7 1018.3 1018.3 0.0
 
Date/Time
EST
Temp
°C
App
Temp
°C
Dew
Point
Rel
Hum
%
Delta-T
°C
Wind Press
QNH
hPa
Press
MSL
hPa
Rain
since 9 am
mm
Dir
 
Spd
km/h
Gust
km/h
Spd
kts
Gust
kts
20/11:30pm 19.4 20.5 17.9 91 0.9 N 9 9 5 5 1018.9 1018.9 0.0
20/11:00pm 19.2 20.6 17.7 91 0.9 N 7 9 4 5 1018.9 1018.9 0.0
20/10:30pm 19.4 21.0 17.9 91 0.9 NW 6 7 3 4 1019.0 1019.0 0.0
20/10:00pm 19.4 20.8 17.9 91 0.9 WNW 7 9 4 5 1019.1 1019.1 0.0
20/09:30pm 19.7 20.9 18.2 91 0.9 NW 9 11 5 6 1019.2 1019.2 0.0
20/09:00pm 19.8 20.9 18.1 90 1.0 NW 9 11 5 6 1019.3 1019.3 0.0
20/08:30pm 19.8 20.9 18.1 90 1.1 NNW 9 11 5 6 1019.1 1019.1 0.0
20/08:00pm 19.9 21.1 18.2 90 1.1 WNW 9 11 5 6 1019.2 1019.2 0.0
20/07:30pm 20.2 20.7 18.3 89 1.2 N 13 17 7 9 1018.6 1018.6 0.0
20/07:00pm 20.2 20.7 18.3 89 1.2 N 13 17 7 9 1018.5 1018.5 0.0
20/06:30pm 20.6 20.6 18.2 86 1.5 N 15 19 8 10 1018.6 1018.6 0.0
20/06:00pm 20.8 20.8 18.0 84 1.7 N 15 17 8 9 1018.5 1018.5 0.0
20/05:30pm 21.0 20.4 17.6 81 2.1 NNE 17 17 9 9 1018.4 1018.4 0.0
20/05:00pm 21.3 21.3 17.3 78 2.5 NNE 13 15 7 8 1018.0 1018.0 0.0
20/04:30pm 21.9 21.9 17.3 75 2.8 NE 13 15 7 8 1018.0 1018.0 0.0
20/04:00pm 22.2 21.8 17.1 73 3.1 NE 15 17 8 9 1017.8 1017.7 0.0
20/03:30pm 22.3 22.1 16.8 71 3.4 NE 13 15 7 8 1017.7 1017.6 0.0
20/03:00pm 22.5 22.7 16.8 70 3.5 ENE 11 13 6 7 1017.6 1017.5 0.0
20/02:30pm 22.6 23.2 16.9 70 3.5 ENE 9 11 5 6 1017.9 1017.9 0.0
20/02:00pm 22.1 21.8 16.4 70 3.5 E 13 13 7 7 1017.8 1017.7 0.0
20/01:30pm 22.6 23.0 17.3 72 3.3 E 11 13 6 7 1017.8 1017.7 0.0
20/01:00pm 22.2 22.2 17.1 73 3.1 E 13 13 7 7 1018.2 1018.2 0.0
20/12:30pm 22.3 21.9 16.3 69 3.6 E 13 13 7 7 1018.6 1018.6 0.0
20/12:00pm 23.7 24.3 16.7 65 4.3 E 9 11 5 6 1018.9 1018.9 0.0
20/11:30am 22.8 23.5 16.1 66 4.1 ENE 7 9 4 5 1019.4 1019.4 0.0
20/11:00am 22.3 22.6 17.0 72 3.2 NE 11 11 6 6 1020.0 1020.0 0.0
20/10:30am 22.8 23.6 17.3 71 3.4 ENE 9 11 5 6 1020.4 1020.4 0.0
20/10:00am 22.0 22.6 16.9 73 3.1 SE 9 11 5 6 1020.6 1020.6 0.0
20/09:30am 20.8 21.5 16.0 74 2.9 W 7 11 4 6 1020.7 1020.7 0.0
20/09:00am 19.6 20.0 16.3 81 2.0 WSW 9 13 5 7 1020.8 1020.8 0.2
20/08:30am 18.5 18.0 15.9 85 1.5 WSW 13 17 7 9 1020.8 1020.8 0.2

Other Formats:

Comma delimited format used in spreadsheet applications
http://www.bom.gov.au/fwo/IDQ60801/IDQ60801.95591.axf

JavaScript Object Notation format (JSON) in row-major order
http://www.bom.gov.au/fwo/IDQ60801/IDQ60801.95591.json